createdAt,value
2023-03-22T00:01:37.713Z,7.32
2023-03-22T00:04:04.738Z,7.05
2023-03-22T00:06:31.389Z,7.00
2023-03-22T00:08:58.309Z,7.50
2023-03-22T00:11:25.980Z,6.50
2023-03-22T00:13:53.690Z,7.07
2023-03-22T00:16:21.961Z,7.65
2023-03-22T00:18:48.687Z,7.03
2023-03-22T00:21:16.768Z,6.57
2023-03-22T00:23:44.066Z,6.40
2023-03-22T00:26:12.225Z,6.50
2023-03-22T00:28:39.316Z,6.07
2023-03-22T00:31:07.040Z,6.97
2023-03-22T00:33:33.924Z,6.43
2023-03-22T00:36:03.162Z,6.53
2023-03-22T00:38:42.417Z,6.43
2023-03-22T00:41:12.755Z,6.00
2023-03-22T00:43:40.670Z,6.43
2023-03-22T00:46:07.400Z,6.15
2023-03-22T00:48:34.660Z,6.93
2023-03-22T00:51:01.714Z,6.40
2023-03-22T00:53:29.206Z,6.22
2023-03-22T00:55:59.121Z,6.32
2023-03-22T00:58:25.767Z,6.20
2023-03-22T01:00:52.420Z,6.50
2023-03-22T01:03:19.367Z,6.78
2023-03-22T01:05:46.379Z,6.22
2023-03-22T01:08:14.896Z,5.93
2023-03-22T01:10:42.700Z,6.00
2023-03-22T01:13:10.928Z,5.68
2023-03-22T01:15:37.738Z,5.45
2023-03-22T01:18:04.523Z,5.32
2023-03-22T01:20:31.924Z,4.80
2023-03-22T01:22:58.566Z,5.03
2023-03-22T01:25:25.353Z,4.85
2023-03-22T01:27:52.731Z,4.82
2023-03-22T01:30:19.329Z,4.90
2023-03-22T01:32:45.983Z,4.15
2023-03-22T01:35:12.604Z,4.53
2023-03-22T01:37:39.211Z,4.93
2023-03-22T01:40:06.716Z,4.57
2023-03-22T01:42:33.485Z,3.80
2023-03-22T01:45:32.798Z,4.20
2023-03-22T01:48:02.964Z,3.42
2023-03-22T01:50:31.363Z,3.72
2023-03-22T01:53:00.537Z,3.75
2023-03-22T01:55:28.248Z,4.15
2023-03-22T01:57:55.578Z,3.78
2023-03-22T02:00:22.414Z,3.30
2023-03-22T02:02:51.601Z,3.53
2023-03-22T02:05:19.530Z,3.38
2023-03-22T02:07:46.175Z,4.25
2023-03-22T02:10:19.624Z,3.92
2023-03-22T02:13:27.903Z,3.28
2023-03-22T02:16:06.659Z,3.40
2023-03-22T02:18:47.984Z,2.88
2023-03-22T02:21:33.272Z,4.20
2023-03-22T02:24:24.859Z,3.50
2023-03-22T02:27:23.750Z,3.15
2023-03-22T02:30:19.704Z,2.90
2023-03-22T02:33:05.541Z,2.63
2023-03-22T02:35:44.288Z,3.08
2023-03-22T02:38:23.267Z,2.90
2023-03-22T02:40:58.711Z,2.83
2023-03-22T02:43:50.243Z,3.10
2023-03-22T02:46:27.440Z,2.75
2023-03-22T02:49:02.718Z,3.70
2023-03-22T02:51:47.257Z,2.80
2023-03-22T02:54:22.790Z,3.08
2023-03-22T02:57:16.856Z,3.63
2023-03-22T02:59:44.666Z,2.55
2023-03-22T03:02:17.348Z,2.60
2023-03-22T03:04:48.639Z,2.80
2023-03-22T03:07:21.840Z,2.60
2023-03-22T03:09:50.399Z,3.17
2023-03-22T03:12:23.534Z,3.30
2023-03-22T03:14:50.730Z,3.13
2023-03-22T03:17:36.120Z,3.00
2023-03-22T03:20:12.335Z,3.10
2023-03-22T03:23:04.222Z,3.47
2023-03-22T03:25:57.898Z,3.30
2023-03-22T03:28:43.676Z,3.35
2023-03-22T03:31:10.356Z,3.15
2023-03-22T03:33:48.405Z,3.00
2023-03-22T03:36:17.919Z,2.90
2023-03-22T03:38:49.830Z,3.63
2023-03-22T03:41:20.564Z,4.35
2023-03-22T03:43:49.059Z,3.30
2023-03-22T03:46:16.293Z,3.08
2023-03-22T03:48:47.744Z,3.40
2023-03-22T03:51:14.571Z,3.10
2023-03-22T03:53:41.609Z,3.33
2023-03-22T03:56:09.132Z,3.05
2023-03-22T03:58:35.708Z,3.40
2023-03-22T04:01:04.037Z,2.90
2023-03-22T04:03:31.421Z,3.50
2023-03-22T04:05:59.765Z,3.45
2023-03-22T04:08:26.921Z,3.95
2023-03-22T04:10:53.558Z,3.35
2023-03-22T04:13:24.624Z,3.90
2023-03-22T04:15:55.451Z,3.13
2023-03-22T04:18:22.058Z,3.05
2023-03-22T04:20:49.637Z,3.30
2023-03-22T04:23:16.869Z,3.28
2023-03-22T04:25:43.722Z,3.55
2023-03-22T04:28:10.359Z,3.33
2023-03-22T04:30:37.139Z,3.20
2023-03-22T04:33:07.950Z,3.95
2023-03-22T04:35:35.392Z,4.05
2023-03-22T04:38:02.102Z,4.22
2023-03-22T04:40:35.275Z,3.88
2023-03-22T04:43:04.027Z,4.63
2023-03-22T04:45:32.183Z,4.65
2023-03-22T04:47:59.863Z,4.65
2023-03-22T04:50:28.233Z,4.88
2023-03-22T04:52:55.028Z,4.57
2023-03-22T04:55:21.640Z,5.50
2023-03-22T04:57:48.213Z,5.85
2023-03-22T05:00:15.383Z,5.10
2023-03-22T05:02:42.013Z,6.03
2023-03-22T05:05:08.746Z,5.65
2023-03-22T05:07:35.433Z,7.03
2023-03-22T05:10:02.113Z,6.50
2023-03-22T05:12:29.139Z,6.80
2023-03-22T05:14:55.978Z,6.72
2023-03-22T05:17:22.853Z,6.85
2023-03-22T05:19:49.466Z,7.18
2023-03-22T05:22:16.178Z,7.80
2023-03-22T05:24:42.761Z,7.40
2023-03-22T05:27:10.960Z,7.32
2023-03-22T05:29:37.849Z,8.35
2023-03-22T05:32:04.766Z,8.60
2023-03-22T05:34:35.817Z,8.60
2023-03-22T05:37:03.700Z,8.93
2023-03-22T05:39:30.355Z,8.45
2023-03-22T05:41:56.955Z,8.75
2023-03-22T05:44:23.643Z,8.60
2023-03-22T05:46:50.288Z,8.98
2023-03-22T05:49:16.920Z,9.63
2023-03-22T05:51:43.659Z,8.98
2023-03-22T05:54:10.446Z,9.00
2023-03-22T05:56:37.105Z,8.32
2023-03-22T05:59:04.731Z,8.50
2023-03-22T06:01:31.435Z,9.43
2023-03-22T06:03:58.188Z,9.27
2023-03-22T06:06:24.874Z,8.63
2023-03-22T06:08:51.480Z,9.02
2023-03-22T06:11:19.366Z,9.43
2023-03-22T06:13:46.044Z,9.13
2023-03-22T06:16:12.802Z,8.65
2023-03-22T06:18:39.666Z,9.38
2023-03-22T06:21:06.440Z,8.55
2023-03-22T06:23:33.080Z,9.00
2023-03-22T06:25:59.777Z,8.90
2023-03-22T06:28:29.802Z,8.30
2023-03-22T06:30:56.944Z,9.18
2023-03-22T06:33:23.647Z,9.85
2023-03-22T06:35:50.316Z,9.15
2023-03-22T06:38:17.064Z,8.93
2023-03-22T06:40:43.757Z,8.95
2023-03-22T06:43:10.387Z,9.90
2023-03-22T06:45:37.016Z,9.18
2023-03-22T06:48:03.910Z,9.15
2023-03-22T06:50:30.918Z,8.88
2023-03-22T06:52:57.521Z,8.85
2023-03-22T06:55:24.257Z,8.57
2023-03-22T06:57:50.975Z,8.65
2023-03-22T07:00:17.978Z,8.68
2023-03-22T07:02:44.712Z,8.13
2023-03-22T07:05:11.550Z,8.43
2023-03-22T07:07:38.449Z,9.18
2023-03-22T07:10:07.858Z,9.23
2023-03-22T07:12:34.656Z,9.40
2023-03-22T07:15:01.793Z,8.60
2023-03-22T07:17:28.484Z,7.95
2023-03-22T07:19:55.287Z,7.57
2023-03-22T07:22:22.590Z,7.65
2023-03-22T07:24:56.697Z,8.40
2023-03-22T07:27:24.717Z,8.35
2023-03-22T07:29:51.559Z,7.78
2023-03-22T07:32:18.352Z,7.50
2023-03-22T07:34:45.080Z,7.10
2023-03-22T07:37:11.834Z,7.82
2023-03-22T07:39:38.569Z,7.07
2023-03-22T07:42:05.569Z,7.35
2023-03-22T07:44:32.482Z,7.05
2023-03-22T07:46:59.145Z,6.88
2023-03-22T07:49:27.186Z,6.50
2023-03-22T07:51:54.098Z,6.80
2023-03-22T07:54:33.023Z,6.38
2023-03-22T07:57:01.501Z,6.97
2023-03-22T07:59:28.258Z,6.65
2023-03-22T08:01:55.391Z,6.22
2023-03-22T08:04:22.616Z,6.97
2023-03-22T08:06:49.936Z,6.05
2023-03-22T08:09:17.036Z,6.03
2023-03-22T08:11:44.197Z,5.50
2023-03-22T08:14:10.972Z,4.97
2023-03-22T08:16:38.593Z,5.85
2023-03-22T08:19:06.100Z,5.03
2023-03-22T08:21:32.774Z,5.90
2023-03-22T08:23:59.491Z,5.68
2023-03-22T08:26:27.464Z,5.28
2023-03-22T08:28:54.073Z,5.00
2023-03-22T08:31:21.035Z,5.20
2023-03-22T08:33:48.164Z,5.72
2023-03-22T08:36:22.935Z,4.93
2023-03-22T08:38:50.531Z,4.63
2023-03-22T08:41:17.166Z,4.45
2023-03-22T08:43:43.806Z,4.93
2023-03-22T08:46:10.936Z,5.15
2023-03-22T08:48:38.462Z,4.65
2023-03-22T08:51:06.690Z,4.70
2023-03-22T08:53:33.730Z,4.38
2023-03-22T08:56:01.797Z,4.38
2023-03-22T08:58:28.566Z,4.13
2023-03-22T09:00:55.533Z,5.47
2023-03-22T09:03:24.017Z,4.65
2023-03-22T09:05:50.825Z,4.05
2023-03-22T09:08:19.603Z,4.55
2023-03-22T09:10:51.322Z,4.13
2023-03-22T09:13:18.484Z,4.07
2023-03-22T09:15:45.509Z,3.75
2023-03-22T09:18:12.305Z,3.78
2023-03-22T09:20:39.649Z,4.13
2023-03-22T09:23:06.982Z,4.00
2023-03-22T09:25:33.690Z,3.92
2023-03-22T09:28:00.367Z,4.13
2023-03-22T09:30:27.428Z,3.63
2023-03-22T09:32:54.659Z,3.58
2023-03-22T09:35:21.683Z,3.63
2023-03-22T09:37:53.151Z,3.63
2023-03-22T09:40:21.372Z,3.72
2023-03-22T09:42:54.601Z,3.75
2023-03-22T09:45:30.785Z,3.78
2023-03-22T09:47:59.721Z,4.30
2023-03-22T09:50:30.043Z,3.95
2023-03-22T09:52:57.497Z,4.03
2023-03-22T09:55:41.930Z,4.93
2023-03-22T09:58:22.199Z,3.80
2023-03-22T10:00:57.426Z,3.40
2023-03-22T10:03:53.136Z,3.50
2023-03-22T10:06:23.823Z,3.85
2023-03-22T10:09:14.380Z,3.88
2023-03-22T10:11:55.912Z,4.38
2023-03-22T10:14:38.986Z,3.50
2023-03-22T10:17:12.011Z,3.28
2023-03-22T10:19:59.642Z,3.47
2023-03-22T10:22:36.594Z,3.63
2023-03-22T10:25:08.471Z,4.28
2023-03-22T10:27:36.988Z,4.05
2023-03-22T10:30:21.199Z,3.53
2023-03-22T10:33:03.290Z,3.75
2023-03-22T10:35:32.166Z,4.40
2023-03-22T10:38:02.572Z,4.00
2023-03-22T10:40:32.746Z,4.05
2023-03-22T10:43:30.570Z,3.95
2023-03-22T10:45:58.728Z,3.58
2023-03-22T10:48:45.277Z,4.03
2023-03-22T10:51:51.318Z,3.65
2023-03-22T10:54:21.248Z,3.47
2023-03-22T10:56:47.918Z,3.95
2023-03-22T10:59:42.425Z,4.00
2023-03-22T11:02:21.183Z,3.50
2023-03-22T11:04:56.691Z,3.92
2023-03-22T11:07:40.556Z,4.18
2023-03-22T11:10:10.019Z,3.70
2023-03-22T11:12:40.872Z,4.40
2023-03-22T11:15:22.595Z,3.88
2023-03-22T11:17:49.720Z,3.60
2023-03-22T11:20:19.095Z,3.92
2023-03-22T11:22:48.276Z,4.00
2023-03-22T11:25:20.552Z,3.83
2023-03-22T11:27:53.509Z,3.55
2023-03-22T11:30:22.205Z,3.63
2023-03-22T11:32:49.508Z,3.45
2023-03-22T11:35:23.237Z,3.45
2023-03-22T11:37:52.915Z,3.65
2023-03-22T11:40:31.631Z,4.05
2023-03-22T11:43:19.493Z,3.38
2023-03-22T11:45:49.471Z,4.10
2023-03-22T11:48:21.408Z,3.30
2023-03-22T11:50:52.652Z,3.08
2023-03-22T11:53:25.679Z,3.35
2023-03-22T11:55:56.279Z,3.63
2023-03-22T12:00:59.697Z,3.40
2023-03-22T12:03:31.186Z,3.70
2023-03-22T12:06:01.759Z,3.30
2023-03-22T12:08:44.946Z,2.92
2023-03-22T12:11:19.408Z,3.65
2023-03-22T12:13:55.105Z,3.33
2023-03-22T12:16:28.323Z,3.40
2023-03-22T12:19:14.325Z,3.45
2023-03-22T12:21:41.750Z,3.00
2023-03-22T12:24:22.959Z,2.90
2023-03-22T12:26:52.862Z,2.67
2023-03-22T12:29:21.477Z,2.88
2023-03-22T12:32:15.976Z,2.80
2023-03-22T12:34:48.127Z,3.22
2023-03-22T12:37:20.782Z,2.90
2023-03-22T12:39:53.709Z,3.17
2023-03-22T12:42:47.928Z,3.10
2023-03-22T12:45:23.716Z,3.00
2023-03-22T12:48:03.411Z,3.80
2023-03-22T12:50:43.118Z,3.60
2023-03-22T12:53:16.596Z,3.58
2023-03-22T12:55:46.022Z,3.95
2023-03-22T12:58:19.584Z,4.10
2023-03-22T13:01:00.857Z,4.18
2023-03-22T13:03:39.754Z,3.60
2023-03-22T13:06:41.332Z,4.35
2023-03-22T13:09:13.023Z,4.10
2023-03-22T13:11:39.894Z,4.65
2023-03-22T13:14:07.009Z,3.83
2023-03-22T13:17:07.388Z,3.95
2023-03-22T13:19:37.637Z,3.55
2023-03-22T13:22:19.467Z,4.68
2023-03-22T13:25:17.280Z,3.80
2023-03-22T13:27:54.584Z,4.32
2023-03-22T13:30:21.793Z,3.85
2023-03-22T13:32:56.003Z,4.60
2023-03-22T13:35:28.500Z,4.18
2023-03-22T13:38:02.935Z,4.18
2023-03-22T13:40:51.458Z,3.83
2023-03-22T13:43:25.785Z,3.72
2023-03-22T13:46:09.211Z,4.15
2023-03-22T13:48:48.643Z,4.20
2023-03-22T13:51:29.381Z,4.60
2023-03-22T13:54:02.019Z,4.70
2023-03-22T13:56:54.224Z,3.63
2023-03-22T13:59:24.256Z,3.67
2023-03-22T14:02:12.377Z,4.40
2023-03-22T14:04:44.688Z,4.30
2023-03-22T14:07:32.523Z,4.18
2023-03-22T14:10:06.697Z,4.15
2023-03-22T14:12:52.321Z,4.28
2023-03-22T14:15:23.348Z,4.20
2023-03-22T14:17:58.416Z,4.28
2023-03-22T14:20:30.769Z,5.00
